Aérodrome :
LOGIN :

S'inscrire | Disclaimer

   EN    FR    IT 

 










Légende :    VFR   VFR Marginal   IFR   IFR Intensif   IFR Très Intensif
Visi : 
Plafond : 
>= 8 km
>= 3000ft
5 à 8 km
1000 à 3000 ft
1500m à 5 km
500 à 1000 ft
800 à 1500m
200 à 500 ft
< 800m
< 200 ft
Symboles :   Orages  Brouillard  Fortes neiges  Fortes précipitations  Vent > 20 kt
SIGMETs :   Divers  Orages  Givrage  Turbulence  Onde Orograph.  Cendres Volcan.







- Altitude de l'aérodrome : 46 ft
- Code IATA : SNN


EINN - Shannon

DERNIER METAR :
  • 231800Z 25004KT CAVOK 06/02 Q1004 NOSIG

METARs EXPIRÉS :
  • 231730Z 26003KT 9999 FEW030 SCT150 BKN200 05/02 Q1004 NOSIG
  • 231700Z 27005KT 9999 FEW030 BKN200 06/01 Q1003 NOSIG
  • 231630Z 27005KT 9999 FEW030 SCT140 BKN170 06/01 Q1003 NOSIG
  • 231600Z 28006KT 9999 FEW018 BKN180 07/02 Q1002 NOSIG
  • 231530Z 29007KT 9999 FEW018 BKN200 07/03 Q1002 NOSIG

TAF TAF EINN
Valide du 23 à 18h jusqu'au 24 à 18h UTC


231700Z 2318/2418 28006KT 9999 SCT020
BECMG 2319/2322 VRB03KT
BECMG 2406/2409 23007KT
BECMG 2409/2412 30013KT
TEMPO 2409/2418 5000 -SHRAGS BKN010 SCT018CB
PROB30
TEMPO 2409/2415 30015G25KT 2500 -SHRASN BKN004
Pas de NOTAMs connus pour ce terrain.



MET'MAP, la Météo Aéronautique d'un coup d'oeil ! - Copyright ORBIFLY Décembre 2007 - Disclaimer

ORBIFLY MET'MAP TEAM :

Programmation & Développement : Alexandra Zaïnal
Conception & Développement : Baudouin d'Aumeries
Co-Programmation & Développement : Marc-Olivier Méhu
Soutien technique & logistique : Manuel Goepfert

Contact : metmap@orbifly.com




SOURCES & CREDITS :

   NOAA